Time;durP1;ratioP1;P1;durP2;ratioP2;P2;SDS_P1;SDS_P2;PMS_P1;PMS_P2;Temp;Humidity;BMP_temperature;BMP_pressure;BME280_temperature;BME280_humidity;BME280_pressure;Samples;Min_cycle;Max_cycle;Signal;HPM_P1;HPM_P2
2022/12/09 00:00:28;;;;;;;;;19.60;18.00;;;;;9.88;45.03;98024.41;6286095;27;96411;-68
2022/12/09 00:03:31;;;;;;;;;27.67;24.00;;;;;9.87;45.09;98026.28;6290597;27;96992;-68
2022/12/09 00:06:35;;;;;;;;;20.00;19.00;;;;;9.79;45.55;98020.44;6301988;27;96588;-69
2022/12/09 00:09:39;;;;;;;;;21.80;20.20;;;;;9.83;46.05;98024.28;6295407;27;96566;-68
2022/12/09 00:12:43;;;;;;;;;21.00;20.00;;;;;9.83;46.49;98024.28;6289515;27;96885;-68
2022/12/09 00:15:46;;;;;;;;;23.00;20.60;;;;;9.80;44.92;98025.59;6284911;27;96510;-68
2022/12/09 00:18:50;;;;;;;;;24.80;23.00;;;;;9.80;45.39;98028.28;6276706;27;96662;-68
2022/12/09 00:21:54;;;;;;;;;23.75;21.75;;;;;9.79;45.16;98025.84;6282627;27;96836;-68
2022/12/09 00:24:59;;;;;;;;;20.60;19.00;;;;;9.78;44.14;98021.50;6284068;27;96673;-68
2022/12/09 00:28:02;;;;;;;;;21.60;19.00;;;;;9.79;43.99;98031.22;6283993;27;96931;-69
2022/12/09 00:31:07;;;;;;;;;20.75;18.75;;;;;9.81;44.55;98023.72;6286189;27;96334;-69
2022/12/09 00:34:12;;;;;;;;;18.00;17.75;;;;;9.84;43.62;98034.00;6295848;27;96387;-69
2022/12/09 00:37:16;;;;;;;;;22.20;20.80;;;;;9.84;43.78;98032.16;6286369;27;96583;-69
2022/12/09 00:40:22;;;;;;;;;18.40;16.40;;;;;9.83;43.48;98041.28;6284630;27;96738;-69
2022/12/09 00:43:25;;;;;;;;;18.60;17.60;;;;;9.84;43.53;98040.22;6285423;27;96450;-69
2022/12/09 00:46:29;;;;;;;;;18.00;16.50;;;;;9.86;44.31;98045.38;6301258;27;96225;-69
2022/12/09 00:49:33;;;;;;;;;18.20;17.20;;;;;9.89;43.87;98039.50;6286038;27;96165;-69
2022/12/09 00:52:36;;;;;;;;;20.50;19.25;;;;;9.91;43.43;98035.53;6285453;27;96187;-68
2022/12/09 00:55:41;;;;;;;;;23.00;20.50;;;;;9.84;43.91;98032.16;6286083;27;96233;-69
2022/12/09 00:58:45;;;;;;;;;22.60;21.00;;;;;9.92;44.27;98045.22;6285063;27;96885;-69
2022/12/09 01:01:48;;;;;;;;;23.60;20.60;;;;;9.92;44.41;98045.22;6276006;27;96828;-68
2022/12/09 01:04:54;;;;;;;;;20.00;17.40;;;;;9.91;44.45;98040.91;6261247;27;96490;-69
2022/12/09 01:07:58;;;;;;;;;17.80;16.80;;;;;9.91;44.89;98045.47;6281658;27;96992;-68
2022/12/09 01:11:08;;;;;;;;;22.50;21.00;;;;;9.87;45.10;98041.63;6305665;27;96224;-69
2022/12/09 01:14:12;;;;;;;;;21.20;18.80;;;;;9.86;45.28;98046.19;6288928;27;96889;-68
2022/12/09 01:17:15;;;;;;;;;23.60;21.00;;;;;9.81;45.45;98054.16;6302136;27;96466;-68
2022/12/09 01:20:19;;;;;;;;;25.00;24.00;;;;;9.81;45.78;98051.47;6288031;27;96490;-69
2022/12/09 01:23:23;;;;;;;;;23.40;21.40;;;;;9.80;45.68;98057.91;6271035;27;96506;-68
2022/12/09 01:26:28;;;;;;;;;25.40;24.00;;;;;9.77;45.79;98053.00;6288650;27;97460;-68
2022/12/09 01:29:32;;;;;;;;;24.00;23.00;;;;;9.76;45.71;98048.66;6303478;27;96258;-68
2022/12/09 01:32:35;;;;;;;;;25.00;21.00;;;;;9.78;45.69;98049.25;6288252;27;98057;-68
2022/12/09 01:35:40;;;;;;;;;26.00;24.00;;;;;9.78;45.85;98037.66;6288427;27;96181;-69
2022/12/09 01:38:43;;;;;;;;;27.20;26.20;;;;;9.70;45.74;98038.84;6304636;27;96467;-68
2022/12/09 01:41:50;;;;;;;;;25.00;24.00;;;;;9.74;45.56;98041.88;6286828;27;96881;-69
2022/12/09 01:45:30;;;;;;;;;24.80;22.20;;;;;9.68;46.47;98046.31;6299028;27;96557;-70
2022/12/09 01:48:37;;;;;;;;;26.80;25.40;;;;;9.62;46.72;98044.59;6295696;27;96222;-69
2022/12/09 01:51:42;;;;;;;;;26.67;23.33;;;;;9.55;46.65;98060.03;6289486;27;96368;-69
2022/12/09 01:54:52;;;;;;;;;27.00;26.00;;;;;9.44;45.93;98037.47;6270489;27;96420;-69
2022/12/09 01:57:57;;;;;;;;;28.00;22.80;;;;;9.54;46.11;98047.63;6304364;27;96810;-69
2022/12/09 02:01:01;;;;;;;;;26.75;25.25;;;;;9.57;46.09;98049.88;6291240;27;96193;-69
2022/12/09 02:04:05;;;;;;;;;28.00;24.60;;;;;9.58;46.17;98046.09;6283654;27;96208;-69
2022/12/09 02:07:11;;;;;;;;;28.00;24.20;;;;;9.56;46.23;98035.59;6291262;27;96445;-69
2022/12/09 02:10:17;;;;;;;;;27.00;25.60;;;;;9.62;46.11;98046.47;6271180;27;97047;-69
2022/12/09 02:13:43;;;;;;;;;30.00;27.60;;;;;9.60;46.75;98035.94;6283322;27;96239;-68
2022/12/09 02:16:56;;;;;;;;;28.00;27.00;;;;;9.62;46.85;98035.72;6287521;27;97229;-70
2022/12/09 02:20:08;;;;;;;;;31.00;29.00;;;;;9.61;46.88;98034.88;6279373;27;96265;-68
2022/12/09 02:23:22;;;;;;;;;27.00;26.00;;;;;9.60;47.13;98027.88;6303170;27;96310;-69
2022/12/09 02:26:35;;;;;;;;;30.50;28.00;;;;;9.56;47.84;98022.13;6317674;27;96328;-69
2022/12/09 02:29:57;;;;;;;;;35.40;30.00;;;;;9.55;48.03;98027.75;6288178;27;96794;-68
2022/12/09 02:33:18;;;;;;;;;28.40;26.60;;;;;9.42;48.15;98028.81;6258351;27;96193;-68
2022/12/09 02:36:28;;;;;;;;;33.50;30.75;;;;;9.34;48.44;98031.03;6237460;28;96294;-70
2022/12/09 02:39:39;;;;;;;;;34.75;30.00;;;;;9.20;48.74;98024.25;6234352;28;97123;-69
2022/12/09 02:42:44;;;;;;;;;37.00;32.00;;;;;9.26;48.72;98026.00;6236454;28;96342;-69
2022/12/09 02:45:50;;;;;;;;;37.60;31.60;;;;;9.27;48.71;98019.59;6221009;28;97064;-69
2022/12/09 02:48:56;;;;;;;;;32.00;30.00;;;;;9.22;48.80;98022.16;6236802;28;96199;-69
2022/12/09 02:52:04;;;;;;;;;36.60;32.00;;;;;9.12;48.95;98017.38;6238083;27;96439;-68
2022/12/09 02:55:10;;;;;;;;;37.00;32.00;;;;;9.18;48.92;98021.81;6248742;27;96274;-69
2022/12/09 02:58:15;;;;;;;;;32.60;28.20;;;;;9.11;49.21;98023.78;6236393;28;97161;-69
2022/12/09 03:01:23;;;;;;;;;35.40;30.00;;;;;9.10;49.10;98014.06;6219680;28;96590;-69
2022/12/09 03:04:29;;;;;;;;;36.75;31.75;;;;;9.10;49.50;98017.59;6252569;27;96911;-68
2022/12/09 03:07:42;;;;;;;;;34.67;30.00;;;;;9.10;49.43;98022.97;6238858;27;96285;-68
2022/12/09 03:10:54;;;;;;;;;33.60;30.60;;;;;9.10;49.63;98020.28;6237632;28;97034;-68
2022/12/09 03:14:04;;;;;;;;;34.00;30.40;;;;;9.09;49.87;98010.56;6245260;27;98039;-68
2022/12/09 03:17:13;;;;;;;;;32.80;30.00;;;;;9.11;50.12;98018.41;6239619;27;96444;-67
2022/12/09 03:20:24;;;;;;;;;34.40;30.00;;;;;9.10;50.01;98006.00;6239026;27;96931;-69
2022/12/09 03:23:31;;;;;;;;;33.20;30.00;;;;;9.09;50.14;98005.19;6212609;28;96494;-69
2022/12/09 03:26:38;;;;;;;;;32.00;30.00;;;;;9.09;49.88;98001.69;6228272;27;96616;-68
2022/12/09 03:29:45;;;;;;;;;39.20;31.40;;;;;9.08;49.90;97995.50;6235446;28;96868;-69
2022/12/09 03:32:49;;;;;;;;;36.00;33.00;;;;;9.08;49.40;97995.50;6250167;27;96433;-69
2022/12/09 03:35:56;;;;;;;;;35.00;32.00;;;;;9.06;49.20;97996.78;6279489;27;96450;-68
2022/12/09 03:39:03;;;;;;;;;39.20;32.00;;;;;9.08;48.89;97997.38;6286835;27;96408;-69
2022/12/09 03:42:15;;;;;;;;;36.00;31.80;;;;;9.06;49.09;97994.91;6285351;27;96818;-68
2022/12/09 03:45:22;;;;;;;;;33.00;30.00;;;;;9.04;49.50;98002.38;6285480;27;97294;-68
2022/12/09 03:48:26;;;;;;;;;26.20;24.20;;;;;9.00;49.69;97990.47;6287286;27;96437;-68
2022/12/09 03:51:34;;;;;;;;;32.00;30.00;;;;;8.96;50.27;98000.06;6290906;27;97128;-69
2022/12/09 03:54:43;;;;;;;;;34.60;30.60;;;;;8.93;50.68;97997.03;6293546;27;96179;-68
2022/12/09 03:57:51;;;;;;;;;30.20;26.20;;;;;8.83;50.63;97992.22;6287463;27;96613;-69
2022/12/09 04:00:55;;;;;;;;;31.60;28.60;;;;;8.92;50.76;98004.25;6285863;27;97197;-68
2022/12/09 04:03:59;;;;;;;;;35.00;32.00;;;;;8.89;51.07;98003.91;6291205;27;96226;-68
2022/12/09 04:07:03;;;;;;;;;33.00;30.00;;;;;8.87;50.99;98000.63;6288778;27;96466;-68
2022/12/09 04:10:09;;;;;;;;;31.75;28.75;;;;;8.85;50.58;98002.72;6296250;27;96545;-69
2022/12/09 04:13:13;;;;;;;;;31.00;30.00;;;;;8.80;51.11;98003.41;6267589;27;96823;-69
2022/12/09 04:16:17;;;;;;;;;35.50;30.75;;;;;8.76;51.25;98001.41;6282531;27;97500;-68
2022/12/09 04:19:20;;;;;;;;;33.00;30.00;;;;;8.75;51.14;97992.53;6299578;27;96822;-68
2022/12/09 04:22:24;;;;;;;;;33.00;30.00;;;;;8.69;51.08;97996.19;6282383;27;97171;-67
2022/12/09 04:25:29;;;;;;;;;31.25;26.25;;;;;8.65;50.84;97997.66;6301370;27;97124;-69
2022/12/09 04:28:33;;;;;;;;;27.60;26.00;;;;;8.62;50.84;97998.13;6283161;27;98858;-69
2022/12/09 04:31:37;;;;;;;;;31.60;28.40;;;;;8.61;50.80;97994.63;6275615;27;97888;-69
2022/12/09 04:34:41;;;;;;;;;22.80;20.80;;;;;8.58;51.20;98003.16;6283791;27;96762;-69
2022/12/09 04:37:44;;;;;;;;;28.40;26.40;;;;;8.55;51.25;97997.44;6285696;27;96229;-69
2022/12/09 04:40:48;;;;;;;;;30.20;26.80;;;;;8.50;51.16;97998.09;6305632;27;96815;-66
2022/12/09 04:43:52;;;;;;;;;28.40;26.00;;;;;8.49;51.45;97998.34;6288795;27;96462;-68
2022/12/09 04:46:55;;;;;;;;;28.60;26.40;;;;;8.46;51.61;97998.78;6281640;27;96544;-68
2022/12/09 04:50:00;;;;;;;;;29.00;26.00;;;;;8.42;51.72;98005.66;6290529;27;96257;-69
2022/12/09 04:53:03;;;;;;;;;34.20;30.20;;;;;8.37;51.83;97998.31;6288859;27;96914;-68
2022/12/09 04:56:12;;;;;;;;;49.40;40.40;;;;;8.35;51.98;98004.97;6288617;27;96481;-68
2022/12/09 04:59:16;;;;;;;;;46.60;37.60;;;;;8.31;52.10;97998.41;6289215;27;96483;-68
2022/12/09 05:02:19;;;;;;;;;52.00;43.00;;;;;8.26;52.14;98013.28;6284559;27;96535;-69
2022/12/09 05:05:23;;;;;;;;;55.80;45.80;;;;;8.21;52.27;98013.16;6289972;27;96365;-67
2022/12/09 05:08:27;;;;;;;;;53.50;44.00;;;;;8.22;52.29;98017.50;6288819;27;96834;-68
2022/12/09 05:11:35;;;;;;;;;48.40;40.00;;;;;8.17;52.54;98014.66;6289655;27;96185;-68
2022/12/09 05:14:39;;;;;;;;;49.00;39.75;;;;;8.15;52.48;98016.78;6279574;27;96860;-69
2022/12/09 05:17:43;;;;;;;;;45.00;37.50;;;;;8.12;52.37;98011.03;6288651;27;96713;-69
2022/12/09 05:20:48;;;;;;;;;52.00;42.00;;;;;8.05;52.18;98003.06;6286593;27;96800;-67
2022/12/09 05:23:51;;;;;;;;;43.80;36.00;;;;;8.06;52.59;98001.22;6287368;27;96561;-66
2022/12/09 05:26:56;;;;;;;;;51.00;41.00;;;;;8.01;52.45;97998.38;6292437;27;96193;-69
2022/12/09 05:30:00;;;;;;;;;46.80;37.20;;;;;7.87;52.29;97999.59;6293521;27;96999;-68
2022/12/09 05:33:04;;;;;;;;;45.00;37.60;;;;;7.82;52.37;98009.13;6285660;27;97766;-69
2022/12/09 05:36:09;;;;;;;;;43.25;36.00;;;;;7.75;52.77;98007.59;6288892;27;96564;-69
2022/12/09 05:39:13;;;;;;;;;45.75;37.00;;;;;7.60;53.18;98010.66;6283571;27;96317;-68
2022/12/09 05:42:18;;;;;;;;;44.00;37.00;;;;;7.50;53.34;98009.53;6283456;27;96360;-67
2022/12/09 05:45:21;;;;;;;;;45.40;36.60;;;;;7.41;53.62;98003.66;6275692;27;96204;-68
2022/12/09 05:48:25;;;;;;;;;51.00;42.00;;;;;7.34;53.67;98005.56;6268456;27;96503;-68
2022/12/09 05:51:30;;;;;;;;;49.40;39.80;;;;;7.29;53.54;98008.09;6283226;27;97753;-68
2022/12/09 05:54:33;;;;;;;;;50.40;41.40;;;;;7.22;53.36;98010.03;6263345;27;97914;-68
2022/12/09 05:57:38;;;;;;;;;51.60;42.00;;;;;7.21;53.35;98001.16;6301072;27;96679;-68
2022/12/09 06:00:42;;;;;;;;;45.00;38.00;;;;;7.18;53.18;97998.13;6274081;27;97057;-68
2022/12/09 06:03:47;;;;;;;;;45.75;38.25;;;;;7.14;53.43;97991.53;6270243;27;96334;-68
2022/12/09 06:06:51;;;;;;;;;45.00;36.00;;;;;7.08;53.26;98005.84;6286485;27;97236;-67
2022/12/09 06:09:54;;;;;;;;;47.00;37.00;;;;;7.02;53.73;97999.50;6268549;27;98797;-69
2022/12/09 06:13:00;;;;;;;;;51.80;42.80;;;;;6.97;54.20;98000.16;6285104;27;97345;-68
2022/12/09 06:16:05;;;;;;;;;51.00;41.60;;;;;6.93;53.70;97998.97;6287035;27;97161;-68
2022/12/09 06:19:11;;;;;;;;;44.40;36.00;;;;;6.88;53.59;97995.31;6287985;27;96580;-68
2022/12/09 06:22:15;;;;;;;;;52.80;43.00;;;;;6.83;53.58;98017.41;6286682;27;96314;-69
2022/12/09 06:25:19;;;;;;;;;47.67;39.00;;;;;6.85;53.57;98004.59;6288019;27;97528;-69
2022/12/09 06:28:23;;;;;;;;;44.60;36.20;;;;;6.81;53.48;98006.06;6287897;27;96339;-69
2022/12/09 06:31:28;;;;;;;;;49.00;41.00;;;;;6.82;54.28;98012.25;6280660;27;96536;-69
2022/12/09 06:34:33;;;;;;;;;41.00;34.60;;;;;6.85;53.91;98014.47;6286333;27;97005;-69
2022/12/09 06:37:36;;;;;;;;;41.60;35.20;;;;;6.84;53.74;98016.34;6289762;27;96288;-69
2022/12/09 06:40:41;;;;;;;;;38.60;34.00;;;;;6.77;54.21;98012.91;6287089;27;96517;-69
2022/12/09 06:43:46;;;;;;;;;37.50;32.75;;;;;6.76;53.68;98016.63;6288463;27;96300;-68
2022/12/09 06:46:50;;;;;;;;;44.60;37.20;;;;;6.78;53.31;98017.25;6287991;27;96295;-68
2022/12/09 06:49:56;;;;;;;;;40.50;34.25;;;;;6.76;53.30;98011.25;6287633;27;96820;-67
2022/12/09 06:53:08;;;;;;;;;44.00;36.00;;;;;6.80;52.91;98007.09;6292237;27;96595;-70
2022/12/09 06:56:13;;;;;;;;;40.00;33.00;;;;;6.84;52.95;98008.31;6288088;27;96290;-68
2022/12/09 06:59:18;;;;;;;;;40.80;34.20;;;;;6.81;52.88;98008.75;6286876;27;98178;-68
2022/12/09 07:02:22;;;;;;;;;38.20;31.00;;;;;6.88;52.82;98012.22;6287371;27;96276;-69
2022/12/09 07:05:26;;;;;;;;;46.40;38.40;;;;;6.96;52.96;98009.25;6272191;27;97514;-68
2022/12/09 07:08:31;;;;;;;;;47.00;39.00;;;;;7.09;52.54;98020.88;6287734;27;97032;-67
2022/12/09 07:11:35;;;;;;;;;45.00;38.00;;;;;7.28;52.27;98020.66;6288034;27;96237;-69
2022/12/09 07:14:40;;;;;;;;;46.20;39.00;;;;;7.99;50.89;98019.25;6287614;27;97465;-68
2022/12/09 07:17:44;;;;;;;;;37.00;34.00;;;;;9.43;47.81;98014.31;6287857;27;96292;-69
2022/12/09 07:20:48;;;;;;;;;36.40;32.20;;;;;11.02;44.00;97999.03;6285660;27;96849;-68
2022/12/09 07:23:52;;;;;;;;;36.00;32.00;;;;;12.43;40.98;98001.97;6287261;27;96256;-69
2022/12/09 07:26:56;;;;;;;;;35.25;32.00;;;;;13.40;38.90;98004.41;6287541;27;96408;-69
2022/12/09 07:30:08;;;;;;;;;34.20;31.80;;;;;14.43;36.56;97994.59;6287204;27;96408;-68
2022/12/09 07:33:11;;;;;;;;;36.67;31.00;;;;;15.52;35.03;97994.09;6287190;27;96352;-69
2022/12/09 07:36:15;;;;;;;;;33.40;29.60;;;;;16.72;33.24;97984.84;6295090;27;96351;-69
2022/12/09 07:39:23;;;;;;;;;37.80;32.00;;;;;18.09;31.04;97981.63;6270644;27;96307;-68
2022/12/09 07:42:27;;;;;;;;;31.00;28.00;;;;;19.38;28.55;97964.66;6279514;27;96278;-69
2022/12/09 07:45:39;;;;;;;;;28.25;27.50;;;;;20.33;27.41;97972.91;6297647;27;96854;-69
2022/12/09 07:48:44;;;;;;;;;32.40;29.00;;;;;20.97;26.26;97970.88;6286546;27;96462;-70
2022/12/09 07:51:48;;;;;;;;;33.25;30.00;;;;;21.26;26.04;97964.97;6286749;27;96654;-70
2022/12/09 07:54:53;;;;;;;;;32.75;30.00;;;;;21.55;25.40;97970.78;6286370;27;96379;-70
2022/12/09 07:57:57;;;;;;;;;36.00;32.00;;;;;21.11;26.02;97966.16;6285241;27;97043;-69
2022/12/09 08:01:06;;;;;;;;;32.50;30.00;;;;;21.18;25.68;97966.56;6284812;27;97267;-69
2022/12/09 08:04:10;;;;;;;;;30.00;28.50;;;;;21.52;25.36;97965.94;6285836;27;96621;-68
2022/12/09 08:07:14;;;;;;;;;31.33;29.00;;;;;21.74;25.23;97969.78;6289360;27;96468;-69
2022/12/09 08:10:17;;;;;;;;;38.00;32.40;;;;;21.39;25.47;97964.13;6284533;27;96870;-69
2022/12/09 08:13:21;;;;;;;;;36.00;32.00;;;;;20.64;26.73;97969.50;6285916;27;96404;-68
2022/12/09 08:16:27;;;;;;;;;37.00;32.60;;;;;20.00;27.60;97968.66;6296952;27;98325;-68
2022/12/09 08:19:31;;;;;;;;;35.00;30.00;;;;;20.39;27.42;97970.06;6311279;27;96457;-69
2022/12/09 08:22:35;;;;;;;;;39.20;33.40;;;;;21.17;26.38;97969.59;6294105;27;96487;-69
2022/12/09 08:25:39;;;;;;;;;39.40;33.60;;;;;21.87;24.79;97977.88;6287056;27;96523;-69
2022/12/09 08:28:43;;;;;;;;;36.80;32.60;;;;;22.62;24.30;97985.06;6282823;27;97167;-69
2022/12/09 08:31:48;;;;;;;;;39.00;31.00;;;;;23.36;23.14;97973.09;6288648;27;96536;-69
2022/12/09 08:34:51;;;;;;;;;32.00;30.00;;;;;24.29;22.14;97973.88;6288521;27;96449;-70
2022/12/09 08:37:56;;;;;;;;;34.00;30.00;;;;;24.78;21.49;97975.00;6289740;27;96285;-70
2022/12/09 08:41:08;;;;;;;;;37.40;32.00;;;;;25.35;21.70;97977.13;6289780;27;97154;-69
2022/12/09 08:44:16;;;;;;;;;44.40;36.00;;;;;26.14;20.58;97973.94;6289859;27;96307;-69
2022/12/09 08:47:21;;;;;;;;;44.20;36.80;;;;;26.76;20.47;97981.03;6288892;27;97952;-69
2022/12/09 08:50:25;;;;;;;;;48.00;40.00;;;;;27.50;19.46;97985.19;6290852;27;97930;-69
2022/12/09 08:53:29;;;;;;;;;48.75;39.00;;;;;28.36;18.87;97977.88;6304103;27;96820;-69
2022/12/09 08:56:33;;;;;;;;;47.33;39.00;;;;;29.06;17.91;97973.16;6287835;27;98313;-69
2022/12/09 08:59:39;;;;;;;;;49.00;38.50;;;;;29.74;17.05;97968.91;6286685;27;96649;-68
2022/12/09 09:02:49;;;;;;;;;47.00;39.00;;;;;30.23;16.64;97967.00;6286813;27;96564;-70
2022/12/09 09:05:53;;;;;;;;;46.60;38.00;;;;;30.68;15.92;97962.53;6277674;27;96747;-67
2022/12/09 09:08:58;;;;;;;;;45.40;36.00;;;;;30.96;15.81;97958.16;6292857;27;97022;-69
2022/12/09 09:12:02;;;;;;;;;43.20;36.80;;;;;30.09;16.20;97950.91;6290701;27;96670;-70
2022/12/09 09:15:06;;;;;;;;;44.40;35.00;;;;;28.63;17.09;97952.00;6287880;27;97112;-69
2022/12/09 09:18:13;;;;;;;;;41.00;34.00;;;;;27.54;17.89;97950.09;6286977;27;96628;-68
2022/12/09 09:21:20;;;;;;;;;44.40;36.00;;;;;26.64;18.84;97943.16;6285827;27;96867;-68
2022/12/09 09:24:25;;;;;;;;;39.80;34.40;;;;;25.96;18.94;97952.41;6286190;27;96634;-68
2022/12/09 09:27:29;;;;;;;;;39.00;33.00;;;;;26.43;19.13;97953.56;6306586;27;96586;-69
2022/12/09 09:30:33;;;;;;;;;45.00;35.00;;;;;26.91;18.77;97952.66;6292006;27;97684;-68
2022/12/09 09:33:38;;;;;;;;;42.60;35.60;;;;;27.47;18.42;97955.38;6302212;27;96570;-68
2022/12/09 09:36:41;;;;;;;;;46.20;36.60;;;;;28.02;17.75;97938.66;6284039;27;96462;-69
2022/12/09 09:39:45;;;;;;;;;45.00;36.00;;;;;28.36;17.57;97936.31;6292554;27;97853;-68
2022/12/09 09:42:52;;;;;;;;;42.80;35.00;;;;;28.65;17.37;97926.63;6287053;27;96805;-70
2022/12/09 09:45:58;;;;;;;;;45.40;38.00;;;;;28.81;17.21;97919.09;6284322;27;97123;-69
2022/12/09 09:49:05;;;;;;;;;39.20;34.60;;;;;28.95;17.14;97908.28;6301869;27;97204;-69
2022/12/09 09:52:15;;;;;;;;;45.00;35.75;;;;;29.53;16.31;97925.69;6290597;27;97502;-69
2022/12/09 09:55:27;;;;;;;;;41.00;35.00;;;;;29.76;16.10;97925.72;6287535;27;96748;-71
2022/12/09 09:58:41;;;;;;;;;41.00;35.00;;;;;29.93;16.12;97924.41;6291429;27;97063;-70
2022/12/09 10:01:52;;;;;;;;;46.00;37.00;;;;;30.11;15.89;97920.75;6283506;27;96652;-69
2022/12/09 10:05:12;;;;;;;;;47.00;38.00;;;;;30.39;15.49;97920.38;6286040;27;96564;-69
2022/12/09 10:08:36;;;;;;;;;45.40;36.00;;;;;30.55;15.58;97921.03;6294167;27;96674;-70
2022/12/09 10:11:54;;;;;;;;;42.20;34.20;;;;;30.68;15.38;97910.47;6286500;27;96822;-70
2022/12/09 10:15:04;;;;;;;;;43.00;36.00;;;;;30.57;15.64;97903.97;6287799;27;96500;-69
2022/12/09 10:18:17;;;;;;;;;45.40;36.40;;;;;30.62;15.73;97906.41;6283167;27;96975;-70
2022/12/09 10:21:23;;;;;;;;;41.20;35.00;;;;;30.53;15.14;97909.50;6286141;27;96792;-70
2022/12/09 10:24:31;;;;;;;;;40.50;34.50;;;;;30.18;15.75;97906.16;6286233;27;97112;-69
2022/12/09 10:27:45;;;;;;;;;37.40;32.00;;;;;29.55;15.68;97909.47;6286190;27;96464;-70
2022/12/09 10:30:50;;;;;;;;;35.00;31.60;;;;;29.12;15.92;97898.72;6283938;27;97120;-69
2022/12/09 10:33:55;;;;;;;;;33.20;29.00;;;;;28.83;15.59;97895.38;6285675;27;97480;-69
2022/12/09 10:37:01;;;;;;;;;32.80;29.40;;;;;28.50;15.49;97891.44;6281395;27;97777;-69
2022/12/09 10:40:19;;;;;;;;;34.40;30.00;;;;;28.00;16.82;97884.78;6287199;27;96650;-69
2022/12/09 10:43:36;;;;;;;;;33.75;30.75;;;;;27.20;17.19;97881.53;6286470;27;96473;-70
2022/12/09 10:46:41;;;;;;;;;32.50;31.50;;;;;26.63;17.84;97877.16;6287357;27;96450;-70
2022/12/09 10:49:49;;;;;;;;;33.00;29.80;;;;;25.42;18.93;97867.78;6302591;27;97210;-70
2022/12/09 10:52:55;;;;;;;;;33.00;30.00;;;;;24.56;19.75;97865.91;6293027;27;96675;-70
2022/12/09 10:56:00;;;;;;;;;33.80;30.00;;;;;23.39;20.50;97873.41;6285387;27;96363;-70
2022/12/09 10:59:19;;;;;;;;;31.00;29.00;;;;;22.35;21.99;97875.47;6287141;27;96633;-69
2022/12/09 11:02:23;;;;;;;;;31.00;28.50;;;;;21.51;22.38;97867.53;6283847;27;96398;-69
2022/12/09 11:05:32;;;;;;;;;29.40;27.00;;;;;20.86;23.10;97870.91;6282938;27;97378;-70
2022/12/09 11:08:41;;;;;;;;;32.40;30.00;;;;;20.54;23.77;97871.16;6287420;27;96240;-69
2022/12/09 11:11:47;;;;;;;;;29.00;26.00;;;;;20.21;23.94;97867.81;6288602;27;96317;-70
2022/12/09 11:14:53;;;;;;;;;28.25;26.25;;;;;19.80;24.71;97859.69;6287116;27;96379;-68
2022/12/09 11:17:59;;;;;;;;;32.00;29.20;;;;;19.30;25.56;97858.78;6287292;27;96881;-68
2022/12/09 11:21:06;;;;;;;;;30.60;27.00;;;;;19.16;25.63;97858.75;6286949;27;97591;-69
2022/12/09 11:24:23;;;;;;;;;30.00;27.00;;;;;19.85;24.75;97860.38;6287726;27;96755;-68
2022/12/09 11:27:30;;;;;;;;;23.60;22.60;;;;;20.88;23.52;97871.41;6280659;27;96455;-68
2022/12/09 11:30:39;;;;;;;;;22.00;19.60;;;;;21.96;22.36;97876.41;6281716;27;96832;-69
2022/12/09 11:34:05;;;;;;;;;25.00;23.00;;;;;22.67;21.58;97871.44;6286840;27;96498;-70
2022/12/09 11:37:11;;;;;;;;;20.00;19.00;;;;;23.32;21.17;97866.47;6286232;27;98072;-69
2022/12/09 11:40:19;;;;;;;;;20.80;17.80;;;;;23.85;20.69;97873.34;6282732;27;97276;-69
2022/12/09 11:43:31;;;;;;;;;22.00;19.00;;;;;23.46;19.70;97871.75;6284544;27;96384;-70
2022/12/09 11:46:35;;;;;;;;;20.25;19.75;;;;;23.38;20.18;97872.59;6288906;27;96359;-70
2022/12/09 11:49:51;;;;;;;;;20.50;18.00;;;;;23.55;20.45;97863.50;6288904;27;96423;-69
2022/12/09 11:53:07;;;;;;;;;20.00;18.00;;;;;23.73;19.90;97854.81;6285814;27;97526;-69
2022/12/09 11:56:16;;;;;;;;;15.00;15.00;;;;;23.42;19.86;97859.78;6286215;27;96825;-70
2022/12/09 11:59:23;;;;;;;;;16.50;16.50;;;;;22.51;20.63;97860.16;6285802;27;96610;-70
2022/12/09 12:02:34;;;;;;;;;20.20;19.20;;;;;21.33;22.46;97852.16;6288042;27;96853;-70
2022/12/09 12:05:42;;;;;;;;;21.00;20.00;;;;;20.18;23.77;97852.03;6274493;27;96986;-69
2022/12/09 12:08:51;;;;;;;;;20.00;19.75;;;;;19.22;24.44;97841.16;6284332;27;97537;-69
2022/12/09 12:12:04;;;;;;;;;25.25;22.00;;;;;18.34;25.76;97819.50;6284548;27;96479;-69
2022/12/09 12:15:15;;;;;;;;;28.00;25.40;;;;;17.54;26.82;97808.66;6284570;27;96904;-69
2022/12/09 12:18:19;;;;;;;;;30.50;28.00;;;;;16.85;28.09;97810.00;6285189;27;96545;-70
2022/12/09 12:21:50;;;;;;;;;28.00;25.50;;;;;16.17;29.38;97796.47;6285698;27;97162;-69
2022/12/09 12:25:12;;;;;;;;;33.40;29.60;;;;;15.58;30.30;97786.53;6284121;27;96948;-69
2022/12/09 12:28:52;;;;;;;;;27.00;26.00;;;;;15.15;30.73;97798.09;6284440;27;96284;-69
2022/12/09 12:32:35;;;;;;;;;26.50;26.25;;;;;14.68;31.83;97804.75;6279188;27;96527;-68
2022/12/09 12:35:56;;;;;;;;;32.50;30.00;;;;;14.33;32.12;97800.16;6279037;27;97764;-68
2022/12/09 12:39:06;;;;;;;;;25.40;24.00;;;;;14.04;32.53;97807.19;6267781;27;96614;-68
2022/12/09 12:42:24;;;;;;;;;32.75;30.00;;;;;13.81;33.10;97802.28;6287095;27;96297;-68
2022/12/09 12:49:13;;;;;;;;;30.40;29.00;;;;;13.34;33.86;97805.16;6285972;27;96230;-69
2022/12/09 12:52:33;;;;;;;;;25.60;23.60;;;;;13.16;34.12;97798.31;6286419;27;97023;-69
2022/12/09 12:56:03;;;;;;;;;35.00;31.60;;;;;12.92;34.76;97787.09;6283073;27;96371;-69
2022/12/09 12:59:14;;;;;;;;;37.00;32.80;;;;;12.86;35.38;97798.13;6287280;27;97057;-68
2022/12/09 13:02:32;;;;;;;;;36.00;33.00;;;;;12.79;35.79;97795.69;6289776;27;96388;-69
2022/12/09 13:05:38;;;;;;;;;42.00;35.60;;;;;12.46;36.99;97785.22;6290351;27;96695;-68
2022/12/09 13:08:49;;;;;;;;;38.20;33.20;;;;;12.33;37.26;97774.84;6290119;27;96343;-69
2022/12/09 13:12:02;;;;;;;;;42.60;35.60;;;;;12.17;37.97;97789.34;6290394;27;96914;-69
2022/12/09 13:15:12;;;;;;;;;39.40;34.40;;;;;12.00;38.42;97786.75;6289892;27;96382;-68
2022/12/09 13:18:22;;;;;;;;;37.20;32.60;;;;;11.89;38.61;97771.53;6290584;27;96747;-69
2022/12/09 13:21:25;;;;;;;;;46.33;38.00;;;;;11.81;38.76;97772.81;6290643;27;96714;-69
2022/12/09 13:24:39;;;;;;;;;41.00;35.50;;;;;11.70;39.69;97763.78;6289341;27;96378;-68
2022/12/09 13:27:49;;;;;;;;;37.40;33.00;;;;;11.50;40.31;97757.38;6288688;27;96325;-68
2022/12/09 13:30:58;;;;;;;;;38.40;33.60;;;;;11.36;40.31;97742.66;6285819;27;97131;-68
2022/12/09 13:34:18;;;;;;;;;33.00;30.00;;;;;11.27;40.76;97763.88;6289116;27;96395;-68
2022/12/09 13:37:55;;;;;;;;;38.60;33.00;;;;;11.19;41.33;97748.16;6289822;27;97480;-69
2022/12/09 13:41:00;;;;;;;;;30.80;28.20;;;;;11.06;41.16;97743.94;6289406;27;96199;-68
2022/12/09 13:44:09;;;;;;;;;32.00;30.00;;;;;11.06;41.27;97743.13;6289112;27;96398;-68
2022/12/09 13:47:24;;;;;;;;;32.80;29.40;;;;;10.94;41.11;97740.59;6289692;27;97181;-68
2022/12/09 13:50:34;;;;;;;;;35.40;32.20;;;;;10.80;41.56;97728.53;6289819;27;96217;-68
2022/12/09 13:53:44;;;;;;;;;31.00;29.00;;;;;10.75;41.71;97721.19;6289789;27;96936;-68
2022/12/09 13:57:13;;;;;;;;;35.40;31.40;;;;;10.73;42.30;97726.03;6289419;27;97017;-69
2022/12/09 14:00:18;;;;;;;;;38.00;33.00;;;;;10.66;42.37;97716.50;6288671;27;96469;-69
2022/12/09 14:03:33;;;;;;;;;39.60;34.60;;;;;10.60;42.93;97728.31;6289236;27;96309;-69
2022/12/09 14:06:48;;;;;;;;;37.50;33.25;;;;;10.56;42.88;97710.97;6288975;27;96581;-69
2022/12/09 14:09:54;;;;;;;;;38.20;33.00;;;;;10.47;43.23;97699.81;6289147;27;96437;-68
2022/12/09 14:13:17;;;;;;;;;34.00;32.00;;;;;10.25;43.76;97674.75;6288639;27;96246;-68
2022/12/09 14:16:34;;;;;;;;;33.75;30.75;;;;;10.25;43.95;97721.34;6281237;27;96422;-68
2022/12/09 14:19:49;;;;;;;;;33.75;31.75;;;;;10.18;44.04;97726.09;6280529;27;96290;-69
2022/12/09 14:23:18;;;;;;;;;35.40;32.00;;;;;10.23;44.11;97730.72;6286963;27;97050;-68
2022/12/09 14:26:34;;;;;;;;;32.00;28.40;;;;;10.09;44.01;97700.63;6269275;27;96706;-68
2022/12/09 14:29:51;;;;;;;;;32.00;28.80;;;;;10.12;44.28;97708.19;6282935;27;96677;-68
2022/12/09 14:32:55;;;;;;;;;36.80;32.00;;;;;10.21;44.12;97728.31;6288157;27;96320;-69